sensor_id;sensor_type;location;lat;lon;timestamp;P1;durP1;ratioP1;P2;durP2;ratioP2
54193;SDS011;40102;50.906;6.972;2023-07-22T00:00:53;4.20;;;3.30;;
54193;SDS011;40102;50.906;6.972;2023-07-22T00:03:18;4.55;;;3.00;;
54193;SDS011;40102;50.906;6.972;2023-07-22T00:05:46;5.70;;;3.00;;
54193;SDS011;40102;50.906;6.972;2023-07-22T00:08:12;5.68;;;3.10;;
54193;SDS011;40102;50.906;6.972;2023-07-22T00:10:41;4.88;;;3.08;;
54193;SDS011;40102;50.906;6.972;2023-07-22T00:13:10;6.65;;;3.05;;
54193;SDS011;40102;50.906;6.972;2023-07-22T00:15:35;4.93;;;2.80;;
54193;SDS011;40102;50.906;6.972;2023-07-22T00:18:00;4.82;;;3.20;;
54193;SDS011;40102;50.906;6.972;2023-07-22T00:20:26;3.80;;;2.83;;
54193;SDS011;40102;50.906;6.972;2023-07-22T00:22:51;4.45;;;2.85;;
54193;SDS011;40102;50.906;6.972;2023-07-22T00:25:17;5.35;;;2.90;;
54193;SDS011;40102;50.906;6.972;2023-07-22T00:27:42;3.70;;;2.83;;
54193;SDS011;40102;50.906;6.972;2023-07-22T00:30:08;4.32;;;2.67;;
54193;SDS011;40102;50.906;6.972;2023-07-22T00:32:34;4.00;;;3.03;;
54193;SDS011;40102;50.906;6.972;2023-07-22T00:35:04;4.85;;;3.45;;
54193;SDS011;40102;50.906;6.972;2023-07-22T00:37:34;3.95;;;3.03;;
54193;SDS011;40102;50.906;6.972;2023-07-22T00:40:00;5.25;;;3.00;;
54193;SDS011;40102;50.906;6.972;2023-07-22T00:42:30;4.82;;;3.50;;
54193;SDS011;40102;50.906;6.972;2023-07-22T00:44:56;4.63;;;3.28;;
54193;SDS011;40102;50.906;6.972;2023-07-22T00:47:21;6.82;;;3.78;;
54193;SDS011;40102;50.906;6.972;2023-07-22T00:49:47;5.25;;;3.50;;
54193;SDS011;40102;50.906;6.972;2023-07-22T00:52:14;4.10;;;3.20;;
54193;SDS011;40102;50.906;6.972;2023-07-22T00:54:39;4.32;;;3.53;;
54193;SDS011;40102;50.906;6.972;2023-07-22T00:57:06;4.80;;;3.17;;
54193;SDS011;40102;50.906;6.972;2023-07-22T00:59:31;4.68;;;3.15;;
54193;SDS011;40102;50.906;6.972;2023-07-22T01:01:57;5.72;;;3.30;;
54193;SDS011;40102;50.906;6.972;2023-07-22T01:04:22;5.65;;;3.33;;
54193;SDS011;40102;50.906;6.972;2023-07-22T01:06:49;6.32;;;3.47;;
54193;SDS011;40102;50.906;6.972;2023-07-22T01:09:18;5.18;;;3.53;;
54193;SDS011;40102;50.906;6.972;2023-07-22T01:11:43;5.45;;;3.47;;
54193;SDS011;40102;50.906;6.972;2023-07-22T01:14:09;4.60;;;3.28;;
54193;SDS011;40102;50.906;6.972;2023-07-22T01:16:34;5.47;;;3.60;;
54193;SDS011;40102;50.906;6.972;2023-07-22T01:19:00;5.13;;;3.55;;
54193;SDS011;40102;50.906;6.972;2023-07-22T01:21:26;6.80;;;3.42;;
54193;SDS011;40102;50.906;6.972;2023-07-22T01:23:52;4.55;;;3.13;;
54193;SDS011;40102;50.906;6.972;2023-07-22T01:26:19;4.95;;;3.50;;
54193;SDS011;40102;50.906;6.972;2023-07-22T01:28:45;8.85;;;3.38;;
54193;SDS011;40102;50.906;6.972;2023-07-22T01:31:10;5.40;;;3.90;;
54193;SDS011;40102;50.906;6.972;2023-07-22T01:33:36;5.88;;;3.83;;
54193;SDS011;40102;50.906;6.972;2023-07-22T01:36:02;8.35;;;3.83;;
54193;SDS011;40102;50.906;6.972;2023-07-22T01:38:28;5.03;;;3.60;;
54193;SDS011;40102;50.906;6.972;2023-07-22T01:40:54;6.82;;;4.07;;
54193;SDS011;40102;50.906;6.972;2023-07-22T01:43:19;5.13;;;3.67;;
54193;SDS011;40102;50.906;6.972;2023-07-22T01:45:45;6.60;;;3.90;;
54193;SDS011;40102;50.906;6.972;2023-07-22T01:48:10;5.43;;;3.72;;
54193;SDS011;40102;50.906;6.972;2023-07-22T01:50:36;5.47;;;3.85;;
54193;SDS011;40102;50.906;6.972;2023-07-22T01:53:01;5.22;;;3.67;;
54193;SDS011;40102;50.906;6.972;2023-07-22T01:55:27;6.13;;;4.55;;
54193;SDS011;40102;50.906;6.972;2023-07-22T01:57:53;5.85;;;3.97;;
54193;SDS011;40102;50.906;6.972;2023-07-22T02:00:19;5.50;;;3.95;;
54193;SDS011;40102;50.906;6.972;2023-07-22T02:02:46;7.57;;;4.45;;
54193;SDS011;40102;50.906;6.972;2023-07-22T02:05:11;5.50;;;4.07;;
54193;SDS011;40102;50.906;6.972;2023-07-22T02:07:37;7.15;;;4.40;;
54193;SDS011;40102;50.906;6.972;2023-07-22T02:10:02;5.78;;;3.90;;
54193;SDS011;40102;50.906;6.972;2023-07-22T02:12:28;5.68;;;4.18;;
54193;SDS011;40102;50.906;6.972;2023-07-22T02:14:53;6.60;;;4.38;;
54193;SDS011;40102;50.906;6.972;2023-07-22T02:17:18;6.03;;;3.90;;
54193;SDS011;40102;50.906;6.972;2023-07-22T02:19:45;6.63;;;4.65;;
54193;SDS011;40102;50.906;6.972;2023-07-22T02:22:11;9.07;;;4.45;;
54193;SDS011;40102;50.906;6.972;2023-07-22T02:24:37;6.90;;;4.00;;
54193;SDS011;40102;50.906;6.972;2023-07-22T02:27:03;6.28;;;4.10;;
54193;SDS011;40102;50.906;6.972;2023-07-22T02:29:29;6.55;;;4.65;;
54193;SDS011;40102;50.906;6.972;2023-07-22T02:31:56;5.32;;;4.00;;
54193;SDS011;40102;50.906;6.972;2023-07-22T02:34:22;7.50;;;3.95;;
54193;SDS011;40102;50.906;6.972;2023-07-22T02:36:48;5.43;;;3.97;;
54193;SDS011;40102;50.906;6.972;2023-07-22T02:39:13;7.07;;;3.80;;
54193;SDS011;40102;50.906;6.972;2023-07-22T02:41:39;6.43;;;3.65;;
54193;SDS011;40102;50.906;6.972;2023-07-22T02:44:04;5.15;;;3.65;;
54193;SDS011;40102;50.906;6.972;2023-07-22T02:46:30;6.30;;;3.88;;
54193;SDS011;40102;50.906;6.972;2023-07-22T02:48:56;5.82;;;4.10;;
54193;SDS011;40102;50.906;6.972;2023-07-22T02:51:21;6.20;;;3.85;;
54193;SDS011;40102;50.906;6.972;2023-07-22T02:53:46;5.15;;;3.63;;
54193;SDS011;40102;50.906;6.972;2023-07-22T02:56:12;4.22;;;3.47;;
54193;SDS011;40102;50.906;6.972;2023-07-22T02:58:38;5.65;;;4.00;;
54193;SDS011;40102;50.906;6.972;2023-07-22T03:01:04;5.50;;;3.70;;
54193;SDS011;40102;50.906;6.972;2023-07-22T03:03:30;5.43;;;3.63;;
54193;SDS011;40102;50.906;6.972;2023-07-22T03:05:58;5.95;;;3.90;;
54193;SDS011;40102;50.906;6.972;2023-07-22T03:08:24;5.88;;;3.70;;
54193;SDS011;40102;50.906;6.972;2023-07-22T03:10:50;5.70;;;3.90;;
54193;SDS011;40102;50.906;6.972;2023-07-22T03:13:15;6.20;;;3.75;;
54193;SDS011;40102;50.906;6.972;2023-07-22T03:15:41;4.50;;;3.40;;
54193;SDS011;40102;50.906;6.972;2023-07-22T03:18:07;6.63;;;4.03;;
54193;SDS011;40102;50.906;6.972;2023-07-22T03:20:32;5.00;;;3.75;;
54193;SDS011;40102;50.906;6.972;2023-07-22T03:22:57;6.20;;;3.88;;
54193;SDS011;40102;50.906;6.972;2023-07-22T03:25:23;6.47;;;4.13;;
54193;SDS011;40102;50.906;6.972;2023-07-22T03:27:48;5.65;;;3.55;;
54193;SDS011;40102;50.906;6.972;2023-07-22T03:30:14;7.18;;;4.00;;
54193;SDS011;40102;50.906;6.972;2023-07-22T03:32:45;6.40;;;3.95;;
54193;SDS011;40102;50.906;6.972;2023-07-22T03:35:12;7.97;;;4.10;;
54193;SDS011;40102;50.906;6.972;2023-07-22T03:37:38;5.13;;;3.78;;
54193;SDS011;40102;50.906;6.972;2023-07-22T03:40:05;5.70;;;3.38;;
54193;SDS011;40102;50.906;6.972;2023-07-22T03:42:33;5.40;;;3.58;;
54193;SDS011;40102;50.906;6.972;2023-07-22T03:44:59;7.10;;;3.63;;
54193;SDS011;40102;50.906;6.972;2023-07-22T03:47:24;5.03;;;3.50;;
54193;SDS011;40102;50.906;6.972;2023-07-22T03:49:49;5.57;;;3.85;;
54193;SDS011;40102;50.906;6.972;2023-07-22T03:52:15;5.80;;;3.88;;
54193;SDS011;40102;50.906;6.972;2023-07-22T03:54:43;7.82;;;4.18;;
54193;SDS011;40102;50.906;6.972;2023-07-22T03:57:09;6.95;;;4.07;;
54193;SDS011;40102;50.906;6.972;2023-07-22T03:59:34;6.22;;;3.83;;
54193;SDS011;40102;50.906;6.972;2023-07-22T04:01:59;6.78;;;3.88;;
54193;SDS011;40102;50.906;6.972;2023-07-22T04:04:25;5.50;;;3.78;;
54193;SDS011;40102;50.906;6.972;2023-07-22T04:06:50;5.57;;;3.63;;
54193;SDS011;40102;50.906;6.972;2023-07-22T04:09:15;7.40;;;3.78;;
54193;SDS011;40102;50.906;6.972;2023-07-22T04:11:40;6.93;;;3.95;;
54193;SDS011;40102;50.906;6.972;2023-07-22T04:14:06;5.43;;;3.60;;
54193;SDS011;40102;50.906;6.972;2023-07-22T04:16:31;5.10;;;3.78;;
54193;SDS011;40102;50.906;6.972;2023-07-22T04:18:57;5.60;;;3.47;;
54193;SDS011;40102;50.906;6.972;2023-07-22T04:21:22;6.40;;;3.65;;
54193;SDS011;40102;50.906;6.972;2023-07-22T04:23:47;10.20;;;4.32;;
54193;SDS011;40102;50.906;6.972;2023-07-22T04:26:14;6.07;;;3.97;;
54193;SDS011;40102;50.906;6.972;2023-07-22T04:28:39;7.07;;;3.97;;
54193;SDS011;40102;50.906;6.972;2023-07-22T04:31:05;5.38;;;3.72;;
54193;SDS011;40102;50.906;6.972;2023-07-22T04:33:30;7.05;;;4.03;;
54193;SDS011;40102;50.906;6.972;2023-07-22T04:35:57;5.45;;;3.92;;
54193;SDS011;40102;50.906;6.972;2023-07-22T04:38:24;7.05;;;4.30;;
54193;SDS011;40102;50.906;6.972;2023-07-22T04:40:50;7.63;;;4.22;;
54193;SDS011;40102;50.906;6.972;2023-07-22T04:43:15;6.43;;;4.50;;
54193;SDS011;40102;50.906;6.972;2023-07-22T04:45:40;6.03;;;3.63;;
54193;SDS011;40102;50.906;6.972;2023-07-22T04:48:06;8.18;;;4.43;;
54193;SDS011;40102;50.906;6.972;2023-07-22T04:50:32;7.53;;;4.00;;
54193;SDS011;40102;50.906;6.972;2023-07-22T04:52:57;6.53;;;4.25;;
54193;SDS011;40102;50.906;6.972;2023-07-22T04:55:23;7.30;;;4.32;;
54193;SDS011;40102;50.906;6.972;2023-07-22T04:57:48;7.22;;;4.30;;
54193;SDS011;40102;50.906;6.972;2023-07-22T05:00:16;7.82;;;4.35;;
54193;SDS011;40102;50.906;6.972;2023-07-22T05:02:42;8.70;;;4.55;;
54193;SDS011;40102;50.906;6.972;2023-07-22T05:05:14;8.07;;;4.38;;
54193;SDS011;40102;50.906;6.972;2023-07-22T05:07:41;6.80;;;4.40;;
54193;SDS011;40102;50.906;6.972;2023-07-22T05:10:07;6.25;;;3.97;;
54193;SDS011;40102;50.906;6.972;2023-07-22T05:12:38;7.93;;;4.28;;
54193;SDS011;40102;50.906;6.972;2023-07-22T05:15:04;7.07;;;4.30;;
54193;SDS011;40102;50.906;6.972;2023-07-22T05:17:30;7.82;;;4.32;;
54193;SDS011;40102;50.906;6.972;2023-07-22T05:19:56;6.63;;;4.00;;
54193;SDS011;40102;50.906;6.972;2023-07-22T05:22:22;7.53;;;3.95;;
54193;SDS011;40102;50.906;6.972;2023-07-22T05:24:48;6.65;;;4.30;;
54193;SDS011;40102;50.906;6.972;2023-07-22T05:27:13;5.45;;;3.85;;
54193;SDS011;40102;50.906;6.972;2023-07-22T05:29:39;6.07;;;3.80;;
54193;SDS011;40102;50.906;6.972;2023-07-22T05:32:05;8.95;;;4.00;;
54193;SDS011;40102;50.906;6.972;2023-07-22T05:34:31;7.40;;;4.28;;
54193;SDS011;40102;50.906;6.972;2023-07-22T05:36:56;7.68;;;4.57;;
54193;SDS011;40102;50.906;6.972;2023-07-22T05:39:21;6.65;;;3.85;;
54193;SDS011;40102;50.906;6.972;2023-07-22T05:41:47;8.70;;;4.85;;
54193;SDS011;40102;50.906;6.972;2023-07-22T05:44:12;6.13;;;4.25;;
54193;SDS011;40102;50.906;6.972;2023-07-22T05:46:37;8.55;;;4.00;;
54193;SDS011;40102;50.906;6.972;2023-07-22T05:49:03;5.30;;;3.90;;
54193;SDS011;40102;50.906;6.972;2023-07-22T05:51:29;5.53;;;3.72;;
54193;SDS011;40102;50.906;6.972;2023-07-22T05:53:54;4.90;;;3.67;;
54193;SDS011;40102;50.906;6.972;2023-07-22T05:56:19;5.95;;;3.83;;
54193;SDS011;40102;50.906;6.972;2023-07-22T05:58:45;8.48;;;4.18;;
54193;SDS011;40102;50.906;6.972;2023-07-22T06:01:10;7.47;;;4.53;;
54193;SDS011;40102;50.906;6.972;2023-07-22T06:03:36;7.97;;;3.97;;
54193;SDS011;40102;50.906;6.972;2023-07-22T06:06:02;6.70;;;4.63;;
54193;SDS011;40102;50.906;6.972;2023-07-22T06:08:27;7.28;;;5.00;;
54193;SDS011;40102;50.906;6.972;2023-07-22T06:10:54;9.30;;;4.00;;
54193;SDS011;40102;50.906;6.972;2023-07-22T06:13:19;7.28;;;4.40;;
54193;SDS011;40102;50.906;6.972;2023-07-22T06:15:45;6.35;;;4.10;;
54193;SDS011;40102;50.906;6.972;2023-07-22T06:18:10;4.70;;;3.50;;
54193;SDS011;40102;50.906;6.972;2023-07-22T06:20:35;5.38;;;3.47;;
54193;SDS011;40102;50.906;6.972;2023-07-22T06:23:01;6.53;;;3.33;;
54193;SDS011;40102;50.906;6.972;2023-07-22T06:25:27;5.20;;;3.33;;
54193;SDS011;40102;50.906;6.972;2023-07-22T06:27:52;4.68;;;3.10;;
54193;SDS011;40102;50.906;6.972;2023-07-22T06:30:20;5.70;;;3.60;;
54193;SDS011;40102;50.906;6.972;2023-07-22T06:32:46;8.23;;;3.75;;
54193;SDS011;40102;50.906;6.972;2023-07-22T06:35:11;6.85;;;4.20;;
54193;SDS011;40102;50.906;6.972;2023-07-22T06:37:37;6.55;;;4.45;;
54193;SDS011;40102;50.906;6.972;2023-07-22T06:40:04;10.05;;;4.45;;
54193;SDS011;40102;50.906;6.972;2023-07-22T06:42:31;7.57;;;5.03;;
54193;SDS011;40102;50.906;6.972;2023-07-22T06:44:56;7.28;;;4.50;;
54193;SDS011;40102;50.906;6.972;2023-07-22T06:47:22;6.75;;;4.90;;
54193;SDS011;40102;50.906;6.972;2023-07-22T06:49:47;6.43;;;4.25;;
54193;SDS011;40102;50.906;6.972;2023-07-22T06:52:13;6.30;;;4.00;;
54193;SDS011;40102;50.906;6.972;2023-07-22T06:54:38;6.93;;;4.15;;
54193;SDS011;40102;50.906;6.972;2023-07-22T06:57:04;6.57;;;3.55;;
54193;SDS011;40102;50.906;6.972;2023-07-22T06:59:31;7.07;;;3.75;;
54193;SDS011;40102;50.906;6.972;2023-07-22T07:01:57;5.47;;;3.83;;
54193;SDS011;40102;50.906;6.972;2023-07-22T07:04:22;6.32;;;3.90;;
54193;SDS011;40102;50.906;6.972;2023-07-22T07:06:47;6.28;;;4.07;;
54193;SDS011;40102;50.906;6.972;2023-07-22T07:09:13;5.95;;;3.92;;
54193;SDS011;40102;50.906;6.972;2023-07-22T07:11:38;6.10;;;3.92;;
54193;SDS011;40102;50.906;6.972;2023-07-22T07:14:04;5.30;;;3.70;;
54193;SDS011;40102;50.906;6.972;2023-07-22T07:16:30;5.50;;;3.97;;
54193;SDS011;40102;50.906;6.972;2023-07-22T07:18:57;6.65;;;4.57;;
54193;SDS011;40102;50.906;6.972;2023-07-22T07:21:26;5.63;;;4.03;;
54193;SDS011;40102;50.906;6.972;2023-07-22T07:23:52;5.17;;;3.77;;
54193;SDS011;40102;50.906;6.972;2023-07-22T07:26:18;7.57;;;4.43;;
54193;SDS011;40102;50.906;6.972;2023-07-22T07:28:44;9.27;;;4.32;;
54193;SDS011;40102;50.906;6.972;2023-07-22T07:31:11;6.43;;;4.28;;
54193;SDS011;40102;50.906;6.972;2023-07-22T07:33:36;7.57;;;4.40;;
54193;SDS011;40102;50.906;6.972;2023-07-22T07:36:02;8.45;;;4.20;;
54193;SDS011;40102;50.906;6.972;2023-07-22T07:38:28;7.00;;;4.25;;
54193;SDS011;40102;50.906;6.972;2023-07-22T07:40:57;7.95;;;4.60;;
54193;SDS011;40102;50.906;6.972;2023-07-22T07:45:49;7.10;;;4.80;;
54193;SDS011;40102;50.906;6.972;2023-07-22T07:48:15;8.10;;;4.43;;
54193;SDS011;40102;50.906;6.972;2023-07-22T07:50:41;7.18;;;4.15;;
54193;SDS011;40102;50.906;6.972;2023-07-22T07:53:07;6.32;;;4.00;;
54193;SDS011;40102;50.906;6.972;2023-07-22T07:55:33;6.95;;;3.70;;
54193;SDS011;40102;50.906;6.972;2023-07-22T07:57:59;8.13;;;4.50;;
54193;SDS011;40102;50.906;6.972;2023-07-22T08:00:24;7.80;;;4.30;;
54193;SDS011;40102;50.906;6.972;2023-07-22T08:02:50;7.00;;;4.32;;
54193;SDS011;40102;50.906;6.972;2023-07-22T08:05:15;5.85;;;3.83;;
54193;SDS011;40102;50.906;6.972;2023-07-22T08:07:41;5.85;;;3.85;;
54193;SDS011;40102;50.906;6.972;2023-07-22T08:10:06;4.93;;;3.28;;
54193;SDS011;40102;50.906;6.972;2023-07-22T08:12:32;4.25;;;3.05;;
54193;SDS011;40102;50.906;6.972;2023-07-22T08:14:58;4.88;;;3.30;;
54193;SDS011;40102;50.906;6.972;2023-07-22T08:17:24;4.35;;;3.15;;
54193;SDS011;40102;50.906;6.972;2023-07-22T08:19:49;4.18;;;3.03;;
54193;SDS011;40102;50.906;6.972;2023-07-22T08:22:14;4.30;;;2.78;;
54193;SDS011;40102;50.906;6.972;2023-07-22T08:24:39;7.28;;;3.70;;
54193;SDS011;40102;50.906;6.972;2023-07-22T08:27:05;5.25;;;3.45;;
54193;SDS011;40102;50.906;6.972;2023-07-22T08:29:30;5.57;;;3.78;;
54193;SDS011;40102;50.906;6.972;2023-07-22T08:31:56;5.03;;;3.40;;
54193;SDS011;40102;50.906;6.972;2023-07-22T08:34:21;6.22;;;3.42;;
54193;SDS011;40102;50.906;6.972;2023-07-22T08:36:47;6.53;;;3.28;;
54193;SDS011;40102;50.906;6.972;2023-07-22T08:39:12;4.07;;;3.15;;
54193;SDS011;40102;50.906;6.972;2023-07-22T08:41:37;5.93;;;3.50;;
54193;SDS011;40102;50.906;6.972;2023-07-22T08:44:04;5.15;;;3.15;;
54193;SDS011;40102;50.906;6.972;2023-07-22T08:46:29;5.65;;;3.58;;
54193;SDS011;40102;50.906;6.972;2023-07-22T08:48:59;6.10;;;3.90;;
54193;SDS011;40102;50.906;6.972;2023-07-22T08:51:25;5.10;;;3.65;;
54193;SDS011;40102;50.906;6.972;2023-07-22T08:53:53;5.55;;;3.40;;
54193;SDS011;40102;50.906;6.972;2023-07-22T08:56:22;5.60;;;3.35;;
54193;SDS011;40102;50.906;6.972;2023-07-22T08:58:50;7.63;;;3.33;;
54193;SDS011;40102;50.906;6.972;2023-07-22T09:01:17;6.07;;;3.45;;
54193;SDS011;40102;50.906;6.972;2023-07-22T09:03:42;5.00;;;3.00;;
54193;SDS011;40102;50.906;6.972;2023-07-22T09:06:09;5.43;;;3.03;;
54193;SDS011;40102;50.906;6.972;2023-07-22T09:08:35;4.75;;;2.65;;
54193;SDS011;40102;50.906;6.972;2023-07-22T09:11:01;3.22;;;2.42;;
54193;SDS011;40102;50.906;6.972;2023-07-22T09:13:26;3.30;;;2.65;;
54193;SDS011;40102;50.906;6.972;2023-07-22T09:15:53;3.47;;;2.53;;
54193;SDS011;40102;50.906;6.972;2023-07-22T09:18:21;3.63;;;2.47;;
54193;SDS011;40102;50.906;6.972;2023-07-22T09:20:47;3.13;;;2.22;;
54193;SDS011;40102;50.906;6.972;2023-07-22T09:23:13;4.40;;;2.90;;
54193;SDS011;40102;50.906;6.972;2023-07-22T09:25:38;2.67;;;2.22;;
54193;SDS011;40102;50.906;6.972;2023-07-22T09:28:04;5.50;;;3.10;;
54193;SDS011;40102;50.906;6.972;2023-07-22T09:30:30;6.50;;;3.50;;
54193;SDS011;40102;50.906;6.972;2023-07-22T09:35:27;3.17;;;2.47;;
54193;SDS011;40102;50.906;6.972;2023-07-22T09:38:09;4.38;;;2.80;;
54193;SDS011;40102;50.906;6.972;2023-07-22T09:40:34;4.85;;;2.85;;
54193;SDS011;40102;50.906;6.972;2023-07-22T09:43:03;4.18;;;2.90;;
54193;SDS011;40102;50.906;6.972;2023-07-22T09:45:29;5.05;;;3.05;;
54193;SDS011;40102;50.906;6.972;2023-07-22T09:47:55;4.25;;;2.83;;
54193;SDS011;40102;50.906;6.972;2023-07-22T09:50:25;4.68;;;3.22;;
54193;SDS011;40102;50.906;6.972;2023-07-22T09:55:20;3.78;;;2.35;;
54193;SDS011;40102;50.906;6.972;2023-07-22T09:58:02;3.53;;;2.42;;
54193;SDS011;40102;50.906;6.972;2023-07-22T10:00:29;4.97;;;2.70;;
54193;SDS011;40102;50.906;6.972;2023-07-22T10:02:56;4.00;;;3.03;;
54193;SDS011;40102;50.906;6.972;2023-07-22T10:05:22;4.22;;;2.58;;
54193;SDS011;40102;50.906;6.972;2023-07-22T10:07:50;3.63;;;2.40;;
54193;SDS011;40102;50.906;6.972;2023-07-22T10:10:21;3.63;;;2.60;;
54193;SDS011;40102;50.906;6.972;2023-07-22T10:12:48;4.03;;;2.60;;
54193;SDS011;40102;50.906;6.972;2023-07-22T10:15:14;3.95;;;2.13;;
54193;SDS011;40102;50.906;6.972;2023-07-22T10:17:42;3.55;;;2.38;;
54193;SDS011;40102;50.906;6.972;2023-07-22T10:20:09;2.60;;;1.75;;
54193;SDS011;40102;50.906;6.972;2023-07-22T10:22:40;3.80;;;2.00;;
54193;SDS011;40102;50.906;6.972;2023-07-22T10:27:36;3.05;;;2.05;;
54193;SDS011;40102;50.906;6.972;2023-07-22T10:30:05;3.53;;;2.03;;
54193;SDS011;40102;50.906;6.972;2023-07-22T10:32:35;2.25;;;1.70;;
54193;SDS011;40102;50.906;6.972;2023-07-22T10:35:02;3.15;;;2.10;;
54193;SDS011;40102;50.906;6.972;2023-07-22T10:37:34;4.15;;;2.05;;
54193;SDS011;40102;50.906;6.972;2023-07-22T10:40:00;2.83;;;2.20;;
54193;SDS011;40102;50.906;6.972;2023-07-22T10:42:26;2.85;;;2.13;;
54193;SDS011;40102;50.906;6.972;2023-07-22T10:44:52;3.13;;;2.10;;
54193;SDS011;40102;50.906;6.972;2023-07-22T10:47:33;4.05;;;1.88;;
54193;SDS011;40102;50.906;6.972;2023-07-22T10:50:05;3.92;;;2.13;;
54193;SDS011;40102;50.906;6.972;2023-07-22T10:52:42;2.58;;;2.03;;
54193;SDS011;40102;50.906;6.972;2023-07-22T10:55:15;2.45;;;1.80;;
54193;SDS011;40102;50.906;6.972;2023-07-22T10:57:49;5.55;;;1.90;;
54193;SDS011;40102;50.906;6.972;2023-07-22T11:00:19;2.30;;;1.75;;
54193;SDS011;40102;50.906;6.972;2023-07-22T11:02:46;3.03;;;1.98;;
54193;SDS011;40102;50.906;6.972;2023-07-22T11:05:51;2.42;;;1.73;;
54193;SDS011;40102;50.906;6.972;2023-07-22T11:08:34;3.15;;;1.85;;
54193;SDS011;40102;50.906;6.972;2023-07-22T11:11:01;3.38;;;1.90;;
54193;SDS011;40102;50.906;6.972;2023-07-22T11:13:27;4.70;;;1.63;;
54193;SDS011;40102;50.906;6.972;2023-07-22T11:15:57;2.38;;;1.80;;
54193;SDS011;40102;50.906;6.972;2023-07-22T11:18:34;2.03;;;1.60;;
54193;SDS011;40102;50.906;6.972;2023-07-22T11:21:00;2.47;;;1.50;;
54193;SDS011;40102;50.906;6.972;2023-07-22T11:23:26;2.90;;;1.70;;
54193;SDS011;40102;50.906;6.972;2023-07-22T11:25:51;2.38;;;1.73;;
54193;SDS011;40102;50.906;6.972;2023-07-22T11:28:16;2.65;;;1.90;;
54193;SDS011;40102;50.906;6.972;2023-07-22T11:30:42;2.58;;;1.58;;
54193;SDS011;40102;50.906;6.972;2023-07-22T11:33:07;2.00;;;1.65;;
54193;SDS011;40102;50.906;6.972;2023-07-22T11:35:32;2.22;;;1.77;;
54193;SDS011;40102;50.906;6.972;2023-07-22T11:38:01;2.13;;;1.50;;
54193;SDS011;40102;50.906;6.972;2023-07-22T11:40:34;2.80;;;1.83;;
54193;SDS011;40102;50.906;6.972;2023-07-22T11:43:00;2.47;;;1.80;;
54193;SDS011;40102;50.906;6.972;2023-07-22T11:45:27;3.33;;;2.00;;
54193;SDS011;40102;50.906;6.972;2023-07-22T11:47:52;2.83;;;1.70;;
54193;SDS011;40102;50.906;6.972;2023-07-22T11:50:18;2.90;;;2.13;;
54193;SDS011;40102;50.906;6.972;2023-07-22T11:52:49;2.42;;;1.63;;
54193;SDS011;40102;50.906;6.972;2023-07-22T11:55:15;2.05;;;1.60;;
54193;SDS011;40102;50.906;6.972;2023-07-22T11:57:40;2.17;;;1.77;;
54193;SDS011;40102;50.906;6.972;2023-07-22T12:00:07;2.92;;;1.45;;
54193;SDS011;40102;50.906;6.972;2023-07-22T12:02:35;4.70;;;2.00;;
54193;SDS011;40102;50.906;6.972;2023-07-22T12:05:04;3.58;;;1.90;;
54193;SDS011;40102;50.906;6.972;2023-07-22T12:07:39;4.13;;;1.80;;
54193;SDS011;40102;50.906;6.972;2023-07-22T12:10:06;3.25;;;1.70;;
54193;SDS011;40102;50.906;6.972;2023-07-22T12:15:02;2.20;;;1.70;;
54193;SDS011;40102;50.906;6.972;2023-07-22T12:17:29;1.90;;;1.70;;
54193;SDS011;40102;50.906;6.972;2023-07-22T12:19:54;3.70;;;1.75;;
54193;SDS011;40102;50.906;6.972;2023-07-22T12:22:20;4.13;;;1.50;;
54193;SDS011;40102;50.906;6.972;2023-07-22T12:24:47;2.63;;;1.75;;
54193;SDS011;40102;50.906;6.972;2023-07-22T12:27:13;1.90;;;1.52;;
54193;SDS011;40102;50.906;6.972;2023-07-22T12:29:38;3.75;;;1.38;;
54193;SDS011;40102;50.906;6.972;2023-07-22T12:32:03;2.05;;;1.50;;
54193;SDS011;40102;50.906;6.972;2023-07-22T12:34:29;1.83;;;1.40;;
54193;SDS011;40102;50.906;6.972;2023-07-22T12:36:55;1.88;;;1.42;;
54193;SDS011;40102;50.906;6.972;2023-07-22T12:39:20;2.75;;;1.30;;
54193;SDS011;40102;50.906;6.972;2023-07-22T12:41:45;2.25;;;1.63;;
54193;SDS011;40102;50.906;6.972;2023-07-22T12:44:10;2.03;;;1.40;;
54193;SDS011;40102;50.906;6.972;2023-07-22T12:46:36;3.83;;;1.50;;
54193;SDS011;40102;50.906;6.972;2023-07-22T12:49:01;2.50;;;1.55;;
54193;SDS011;40102;50.906;6.972;2023-07-22T12:51:27;1.83;;;1.48;;
54193;SDS011;40102;50.906;6.972;2023-07-22T12:53:57;1.80;;;1.50;;
54193;SDS011;40102;50.906;6.972;2023-07-22T12:58:47;1.70;;;1.40;;
54193;SDS011;40102;50.906;6.972;2023-07-22T13:01:13;2.15;;;1.70;;
54193;SDS011;40102;50.906;6.972;2023-07-22T13:03:38;1.92;;;1.50;;
54193;SDS011;40102;50.906;6.972;2023-07-22T13:06:03;1.55;;;1.25;;
54193;SDS011;40102;50.906;6.972;2023-07-22T13:08:29;2.10;;;1.50;;
54193;SDS011;40102;50.906;6.972;2023-07-22T13:10:55;2.70;;;1.50;;
54193;SDS011;40102;50.906;6.972;2023-07-22T13:13:20;2.55;;;1.60;;
54193;SDS011;40102;50.906;6.972;2023-07-22T13:15:45;3.22;;;1.35;;
54193;SDS011;40102;50.906;6.972;2023-07-22T13:18:11;4.38;;;1.80;;
54193;SDS011;40102;50.906;6.972;2023-07-22T13:20:38;1.90;;;1.40;;
54193;SDS011;40102;50.906;6.972;2023-07-22T13:23:03;2.33;;;1.65;;
54193;SDS011;40102;50.906;6.972;2023-07-22T13:25:29;2.88;;;1.85;;
54193;SDS011;40102;50.906;6.972;2023-07-22T13:27:55;2.17;;;1.63;;
54193;SDS011;40102;50.906;6.972;2023-07-22T13:30:21;2.33;;;1.75;;
54193;SDS011;40102;50.906;6.972;2023-07-22T13:32:47;2.08;;;1.67;;
54193;SDS011;40102;50.906;6.972;2023-07-22T13:35:12;2.80;;;2.05;;
54193;SDS011;40102;50.906;6.972;2023-07-22T13:37:38;2.13;;;1.77;;
54193;SDS011;40102;50.906;6.972;2023-07-22T13:40:04;6.03;;;1.70;;
54193;SDS011;40102;50.906;6.972;2023-07-22T13:42:35;4.35;;;1.58;;
54193;SDS011;40102;50.906;6.972;2023-07-22T13:45:01;4.38;;;1.65;;
54193;SDS011;40102;50.906;6.972;2023-07-22T13:47:27;2.35;;;1.58;;
54193;SDS011;40102;50.906;6.972;2023-07-22T13:49:52;2.22;;;1.60;;
54193;SDS011;40102;50.906;6.972;2023-07-22T13:52:18;2.45;;;1.85;;
54193;SDS011;40102;50.906;6.972;2023-07-22T13:54:43;3.42;;;1.70;;
54193;SDS011;40102;50.906;6.972;2023-07-22T13:57:10;2.35;;;1.77;;
54193;SDS011;40102;50.906;6.972;2023-07-22T13:59:35;1.92;;;1.70;;
54193;SDS011;40102;50.906;6.972;2023-07-22T14:02:00;3.60;;;2.05;;
54193;SDS011;40102;50.906;6.972;2023-07-22T14:04:26;2.50;;;1.90;;
54193;SDS011;40102;50.906;6.972;2023-07-22T14:06:51;3.85;;;1.60;;
54193;SDS011;40102;50.906;6.972;2023-07-22T14:09:16;2.20;;;1.80;;
54193;SDS011;40102;50.906;6.972;2023-07-22T14:11:42;2.40;;;1.80;;
54193;SDS011;40102;50.906;6.972;2023-07-22T14:14:07;1.85;;;1.55;;
54193;SDS011;40102;50.906;6.972;2023-07-22T14:16:33;2.88;;;1.80;;
54193;SDS011;40102;50.906;6.972;2023-07-22T14:18:58;2.63;;;2.00;;
54193;SDS011;40102;50.906;6.972;2023-07-22T14:21:24;2.58;;;1.65;;
54193;SDS011;40102;50.906;6.972;2023-07-22T14:23:49;2.65;;;1.80;;
54193;SDS011;40102;50.906;6.972;2023-07-22T14:26:14;3.03;;;1.80;;
54193;SDS011;40102;50.906;6.972;2023-07-22T14:28:40;2.80;;;2.03;;
54193;SDS011;40102;50.906;6.972;2023-07-22T14:31:05;2.47;;;1.98;;
54193;SDS011;40102;50.906;6.972;2023-07-22T14:33:30;3.10;;;1.90;;
54193;SDS011;40102;50.906;6.972;2023-07-22T14:35:56;2.95;;;2.15;;
54193;SDS011;40102;50.906;6.972;2023-07-22T14:38:21;5.68;;;2.20;;
54193;SDS011;40102;50.906;6.972;2023-07-22T14:40:46;3.20;;;2.00;;
54193;SDS011;40102;50.906;6.972;2023-07-22T14:43:12;3.03;;;2.10;;
54193;SDS011;40102;50.906;6.972;2023-07-22T14:45:37;2.78;;;1.83;;
54193;SDS011;40102;50.906;6.972;2023-07-22T14:48:02;4.00;;;1.88;;
54193;SDS011;40102;50.906;6.972;2023-07-22T14:50:28;3.88;;;2.00;;
54193;SDS011;40102;50.906;6.972;2023-07-22T14:52:53;3.65;;;2.03;;
54193;SDS011;40102;50.906;6.972;2023-07-22T14:55:18;4.68;;;2.08;;
54193;SDS011;40102;50.906;6.972;2023-07-22T14:57:44;4.60;;;2.03;;